East Falmouth, MA (02536)

5:38 PM EDT on September 04, 2015 (GMT -0400)
Falmouth Airpark Area | | Change Station
CLOSE
Current Station
Personal Weather Station
Location: East Falmouth, MA
Elevation: 50 ft
Nearby Weather Stations

Elev 50 ft 41.59 °N, 70.53 °W | Updated 8 minutes ago

Overcast
Overcast
69.3 °F
Feels Like 69.3 °F
N
0.7
Wind Variable Wind from SE
Gusts 3.8 mph

Today
High -- | Low -- °F
--% Chance of Precip.
Yesterday
High -- | Low -- °F
Precip. -- in
6:11 AM 7:10 PM
Waning Gibbous, 56% visible
Pressure 30.18 in
Visibility 10.0 miles
Clouds Overcast 2000 ft
Dew Point 64 °F
Humidity 82%
Rainfall 0.00 in
Snow Depth Not available.
UV 0 out of 12
Pollen 7.80 out of 12
Air Quality Not available.
Flu Activity Not available.
METAR KFMH 042135Z AUTO 05011KT 10SM OVC020 20/16 A3018 RMK AO2 PWINO
Pressure 30.18 in
Visibility 10.0 miles
Clouds Overcast 2000 ft
Dew Point 64 °F
Humidity 82%
Rainfall 0.00 in
Snow Depth Not available.
UV 0 out of 12
Pollen 7.80 out of 12
Air Quality Not available.
Flu Activity Not available.
METAR KFMH 042135Z AUTO 05011KT 10SM OVC020 20/16 A3018 RMK AO2 PWINO

10-Day Weather Forecast

×

Almanac

Astronomy

Sep. 04, 2015 Rise Set
Actual Time
Civil Twilight
Nautical Twilight
Astronomical Twilight
Moon
Length of Visible Light
Length of Day
Tomorrow will be .
, % of the Moon is Illuminated

Today's Extremes

State Highs State Lows

Community

WunderPhotos

Upload Photos

1,852,297 photos uploaded!

WunderBlogs® & News

Nearby

Air Quality

  Air Quality AQ Index Pollutant
Not available.

Snow Depth

Station Depth Elevation

Earthquake Activity

City Distance Mag. Time & Date
Minimum magnitude displayed is 2.5.

Coastal Water Temperatures

Place Temperature

Stations

Nearby Weather Stations

Station Location Temp. Windchill Dew Point Humidity Wind Precip. Elev Updated Type